createdAt,value
2023-03-05T00:00:36.619Z,32.35
2023-03-05T00:03:07.012Z,32.38
2023-03-05T00:05:36.950Z,32.33
2023-03-05T00:08:07.309Z,32.28
2023-03-05T00:10:37.274Z,32.27
2023-03-05T00:13:10.194Z,32.22
2023-03-05T00:15:44.599Z,32.21
2023-03-05T00:18:14.627Z,32.21
2023-03-05T00:20:44.688Z,32.23
2023-03-05T00:23:16.184Z,32.26
2023-03-05T00:25:47.359Z,32.25
2023-03-05T00:28:17.264Z,32.27
2023-03-05T00:30:47.657Z,32.27
2023-03-05T00:33:17.574Z,32.28
2023-03-05T00:35:48.508Z,32.29
2023-03-05T00:38:18.495Z,32.30
2023-03-05T00:40:51.860Z,32.31
2023-03-05T00:43:22.094Z,32.31
2023-03-05T00:45:53.048Z,32.35
2023-03-05T00:48:24.591Z,32.31
2023-03-05T00:50:54.844Z,32.33
2023-03-05T00:53:24.883Z,32.37
2023-03-05T00:55:56.589Z,32.40
2023-03-05T00:58:26.898Z,32.44
2023-03-05T01:01:02.797Z,32.40
2023-03-05T01:03:41.191Z,32.44
2023-03-05T01:06:14.093Z,32.42
2023-03-05T01:08:45.902Z,32.46
2023-03-05T01:11:15.895Z,32.45
2023-03-05T01:13:45.900Z,32.46
2023-03-05T01:16:16.357Z,32.42
2023-03-05T01:18:48.191Z,32.44
2023-03-05T01:21:18.215Z,32.42
2023-03-05T01:23:53.654Z,32.43
2023-03-05T01:26:24.850Z,32.41
2023-03-05T01:28:57.786Z,32.43
2023-03-05T01:31:30.074Z,32.44
2023-03-05T01:34:01.525Z,32.46
2023-03-05T01:36:32.974Z,32.44
2023-03-05T01:39:04.008Z,32.44
2023-03-05T01:41:36.783Z,32.44
2023-03-05T01:44:11.980Z,32.45
2023-03-05T01:46:42.517Z,32.43
2023-03-05T01:49:34.684Z,32.47
2023-03-05T01:52:17.759Z,32.43
2023-03-05T01:54:57.836Z,32.48
2023-03-05T01:57:39.156Z,32.44
2023-03-05T02:00:12.410Z,32.46
2023-03-05T02:02:45.093Z,32.43
2023-03-05T02:05:18.017Z,32.38
2023-03-05T02:07:47.986Z,32.45
2023-03-05T02:10:25.459Z,32.43
2023-03-05T02:13:00.734Z,32.41
2023-03-05T02:15:36.611Z,32.42
2023-03-05T02:18:08.596Z,32.42
2023-03-05T02:20:55.291Z,32.46
2023-03-05T02:23:29.925Z,32.46
2023-03-05T02:26:03.659Z,32.44
2023-03-05T02:28:53.702Z,32.42
2023-03-05T02:31:28.087Z,32.51
2023-03-05T02:33:58.333Z,32.50
2023-03-05T02:36:35.888Z,32.42
2023-03-05T02:39:13.481Z,32.44
2023-03-05T02:41:45.438Z,32.47
2023-03-05T02:44:20.775Z,32.48
2023-03-05T02:47:00.190Z,32.46
2023-03-05T02:49:30.240Z,32.47
2023-03-05T02:52:00.152Z,32.45
2023-03-05T02:54:30.409Z,32.41
2023-03-05T02:57:00.961Z,32.43
2023-03-05T02:59:34.336Z,32.41
2023-03-05T03:02:04.837Z,32.44
2023-03-05T03:07:16.976Z,32.38
2023-03-05T03:09:46.965Z,32.35
2023-03-05T03:12:16.939Z,32.36
2023-03-05T03:15:00.002Z,32.37
2023-03-05T03:17:30.010Z,32.31
2023-03-05T03:20:02.182Z,32.32
2023-03-05T03:22:34.283Z,32.33
2023-03-05T03:25:05.618Z,32.31
2023-03-05T03:27:44.550Z,32.29
2023-03-05T03:30:23.639Z,32.29
2023-03-05T03:32:57.279Z,32.28
2023-03-05T03:35:33.611Z,32.26
2023-03-05T03:38:07.216Z,32.26
2023-03-05T03:40:43.677Z,32.26
2023-03-05T03:43:14.552Z,32.29
2023-03-05T03:45:47.631Z,32.28
2023-03-05T03:48:17.854Z,32.24
2023-03-05T03:50:49.106Z,32.25
2023-03-05T03:53:22.289Z,32.22
2023-03-05T03:55:52.302Z,32.22
2023-03-05T03:58:26.617Z,32.28
2023-03-05T04:00:54.899Z,32.24
2023-03-05T04:03:35.304Z,32.25
2023-03-05T04:06:06.026Z,32.19
2023-03-05T04:08:42.745Z,32.18
2023-03-05T04:11:20.720Z,32.19
2023-03-05T04:13:47.771Z,32.19
2023-03-05T04:16:17.775Z,32.17
2023-03-05T04:18:48.024Z,32.18
2023-03-05T04:21:17.992Z,32.33
2023-03-05T04:23:47.841Z,32.35
2023-03-05T04:26:17.978Z,32.29
2023-03-05T04:28:49.144Z,32.28
2023-03-05T04:31:22.085Z,32.27
2023-03-05T04:33:52.147Z,32.29
2023-03-05T04:36:22.393Z,32.29
2023-03-05T04:38:52.566Z,32.27
2023-03-05T04:41:22.482Z,32.26
2023-03-05T04:44:14.463Z,32.31
2023-03-05T04:55:16.367Z,32.36
2023-03-05T05:13:13.948Z,32.36
2023-03-05T05:15:44.140Z,32.39
2023-03-05T05:18:13.993Z,32.41
2023-03-05T05:20:44.060Z,32.39
2023-03-05T05:23:14.408Z,32.38
2023-03-05T05:25:49.341Z,32.31
2023-03-05T05:28:19.568Z,32.33
2023-03-05T05:30:49.697Z,32.32
2023-03-05T05:33:19.995Z,32.34
2023-03-05T05:35:50.736Z,32.30
2023-03-05T05:38:21.814Z,32.29
2023-03-05T05:40:56.823Z,32.29
2023-03-05T05:43:26.989Z,32.32
2023-03-05T05:45:57.807Z,32.27
2023-03-05T05:48:32.486Z,32.28
2023-03-05T05:51:02.593Z,32.32
2023-03-05T05:53:33.197Z,32.32
2023-03-05T05:56:06.296Z,32.31
2023-03-05T05:58:43.985Z,32.31
2023-03-05T06:01:29.162Z,32.32
2023-03-05T06:04:05.931Z,32.32
2023-03-05T06:06:36.722Z,32.27
2023-03-05T06:09:06.758Z,32.26
2023-03-05T06:11:36.910Z,32.27
2023-03-05T06:14:11.974Z,32.26
2023-03-05T06:16:46.631Z,32.25
2023-03-05T06:19:22.164Z,32.25
2023-03-05T06:21:57.121Z,32.26
2023-03-05T06:24:32.337Z,32.27
2023-03-05T06:27:06.930Z,32.26
2023-03-05T06:29:43.499Z,32.29
2023-03-05T06:32:18.733Z,32.27
2023-03-05T06:34:49.470Z,32.26
2023-03-05T06:37:19.596Z,32.24
2023-03-05T06:39:49.743Z,32.26
2023-03-05T06:42:24.386Z,32.25
2023-03-05T06:44:54.860Z,32.26
2023-03-05T06:47:24.725Z,32.25
2023-03-05T06:49:54.641Z,32.25
2023-03-05T06:52:24.504Z,32.25
2023-03-05T06:54:55.837Z,32.23
2023-03-05T06:57:25.913Z,32.24
2023-03-05T06:59:55.867Z,32.25
2023-03-05T07:02:27.847Z,32.22
2023-03-05T07:04:58.024Z,32.24
2023-03-05T07:07:27.996Z,32.20
2023-03-05T07:09:57.859Z,32.22
2023-03-05T07:12:27.936Z,32.19
2023-03-05T07:14:58.025Z,32.19
2023-03-05T07:17:27.937Z,32.20
2023-03-05T07:19:57.884Z,32.19
2023-03-05T07:22:27.714Z,32.19
2023-03-05T07:24:57.609Z,32.22
2023-03-05T07:27:27.728Z,32.21
2023-03-05T07:29:57.620Z,32.19
2023-03-05T07:32:27.555Z,32.18
2023-03-05T07:34:57.659Z,32.18
2023-03-05T07:37:30.594Z,32.22
2023-03-05T07:40:00.510Z,32.25
2023-03-05T07:42:30.584Z,32.29
2023-03-05T07:45:00.512Z,32.32
2023-03-05T07:47:31.319Z,32.33
2023-03-05T07:50:01.261Z,32.24
2023-03-05T07:52:31.199Z,32.38
2023-03-05T07:55:01.815Z,32.42
2023-03-05T07:57:31.705Z,32.41
2023-03-05T08:00:01.772Z,32.40
2023-03-05T08:02:31.870Z,32.38
2023-03-05T08:05:03.400Z,32.42
2023-03-05T08:07:35.678Z,32.41
2023-03-05T08:10:09.231Z,32.42
2023-03-05T08:12:41.449Z,32.40
2023-03-05T08:15:16.372Z,32.37
2023-03-05T08:17:48.202Z,32.38
2023-03-05T08:20:21.124Z,32.38
2023-03-05T08:22:52.632Z,32.38
2023-03-05T08:25:28.380Z,32.38
2023-03-05T08:27:58.498Z,32.37
2023-03-05T08:30:28.360Z,32.34
2023-03-05T08:32:58.406Z,32.38
2023-03-05T08:35:31.975Z,32.35
2023-03-05T08:38:05.282Z,32.34
2023-03-05T08:40:34.957Z,32.33
2023-03-05T08:43:06.245Z,32.34
2023-03-05T08:45:36.318Z,32.34
2023-03-05T08:48:06.341Z,32.36
2023-03-05T08:50:39.027Z,32.36
2023-03-05T08:53:09.140Z,32.36
2023-03-05T08:55:38.986Z,32.34
2023-03-05T08:58:09.107Z,32.39
2023-03-05T09:00:38.963Z,32.39
2023-03-05T09:03:08.880Z,32.37
2023-03-05T09:05:41.671Z,32.38
2023-03-05T09:08:12.428Z,32.34
2023-03-05T09:10:46.168Z,32.37
2023-03-05T09:13:17.830Z,32.37
2023-03-05T09:15:48.033Z,32.37
2023-03-05T09:18:19.412Z,32.39
2023-03-05T09:20:50.904Z,32.37
2023-03-05T09:23:22.300Z,32.39
2023-03-05T09:25:52.170Z,32.39
2023-03-05T09:28:22.239Z,32.42
2023-03-05T09:30:52.224Z,32.40
2023-03-05T09:33:22.137Z,32.43
2023-03-05T09:35:52.099Z,32.43
2023-03-05T09:38:22.008Z,32.43
2023-03-05T09:41:08.099Z,32.42
2023-03-05T09:43:46.486Z,32.43
2023-03-05T09:46:21.716Z,32.44
2023-03-05T09:49:10.795Z,32.42
2023-03-05T09:51:42.829Z,32.43
2023-03-05T09:54:27.694Z,32.44
2023-03-05T09:56:58.224Z,32.43
2023-03-05T09:59:47.082Z,32.42
2023-03-05T10:02:37.960Z,32.44
2023-03-05T10:05:28.161Z,32.47
2023-03-05T10:08:03.958Z,32.46
2023-03-05T10:13:43.554Z,32.48
2023-03-05T10:16:34.974Z,32.49
2023-03-05T10:19:33.859Z,32.52
2023-03-05T10:22:06.934Z,32.57
2023-03-05T10:24:51.454Z,32.56
2023-03-05T10:27:23.524Z,32.57
2023-03-05T10:30:00.324Z,32.55
2023-03-05T10:32:37.431Z,32.56
2023-03-05T10:35:37.945Z,32.57
2023-03-05T10:38:43.412Z,32.62
2023-03-05T10:41:32.999Z,32.56
2023-03-05T10:44:17.838Z,32.58
2023-03-05T10:46:55.176Z,32.56
2023-03-05T10:49:39.501Z,32.58
2023-03-05T10:52:18.574Z,32.61
2023-03-05T10:54:48.707Z,32.58
2023-03-05T10:57:26.872Z,32.59
2023-03-05T11:00:01.745Z,32.59
2023-03-05T11:02:31.893Z,32.61
2023-03-05T11:05:08.092Z,32.61
2023-03-05T11:07:38.117Z,32.59
2023-03-05T11:10:18.772Z,32.60
2023-03-05T11:12:48.904Z,32.61
2023-03-05T11:15:23.142Z,32.61
2023-03-05T11:18:24.555Z,32.61
2023-03-05T11:20:55.939Z,32.62
2023-03-05T11:23:26.256Z,32.62
2023-03-05T11:26:07.395Z,32.64
2023-03-05T11:28:39.882Z,32.63
2023-03-05T11:31:22.565Z,32.63
2023-03-05T11:34:09.685Z,32.69
2023-03-05T11:36:43.576Z,32.69
2023-03-05T11:39:19.444Z,32.67
2023-03-05T11:42:03.816Z,32.59
2023-03-05T11:44:36.753Z,32.59
2023-03-05T11:47:15.213Z,32.71
2023-03-05T11:49:48.197Z,32.77
2023-03-05T11:52:26.768Z,32.86
2023-03-05T11:55:08.242Z,32.92
2023-03-05T11:57:48.859Z,32.95
2023-03-05T12:00:24.230Z,33.24
2023-03-05T12:02:55.388Z,33.47
2023-03-05T12:05:26.808Z,33.54
2023-03-05T12:08:01.692Z,33.20
2023-03-05T12:10:33.788Z,33.12
2023-03-05T12:13:34.687Z,33.11
2023-03-05T12:16:07.476Z,33.17
2023-03-05T12:18:55.295Z,33.52
2023-03-05T12:21:34.250Z,33.64
2023-03-05T12:24:05.656Z,33.72
2023-03-05T12:27:00.248Z,33.39
2023-03-05T12:29:52.849Z,33.28
2023-03-05T12:32:32.415Z,33.29
2023-03-05T12:35:05.924Z,33.47
2023-03-05T12:37:38.610Z,33.23
2023-03-05T12:40:30.286Z,33.19
2023-03-05T12:43:04.835Z,33.16
2023-03-05T12:45:42.174Z,33.15
2023-03-05T12:48:16.005Z,33.16
2023-03-05T12:50:48.708Z,33.18
2023-03-05T12:53:19.759Z,33.17
2023-03-05T12:55:58.195Z,33.16
2023-03-05T12:58:36.703Z,33.13
2023-03-05T13:01:15.029Z,33.12
2023-03-05T13:04:00.700Z,33.13
2023-03-05T13:06:34.304Z,33.12
2023-03-05T13:09:23.883Z,33.10
2023-03-05T13:11:54.633Z,33.13
2023-03-05T13:14:36.131Z,33.13
2023-03-05T13:17:07.520Z,33.16
2023-03-05T13:19:37.449Z,33.16
2023-03-05T13:22:09.104Z,33.14
2023-03-05T13:24:39.227Z,33.18
2023-03-05T13:27:11.863Z,33.16
2023-03-05T13:29:44.826Z,33.13
2023-03-05T13:32:23.875Z,33.13
2023-03-05T13:34:53.803Z,33.15
2023-03-05T13:40:54.529Z,33.14
2023-03-05T13:42:21.079Z,33.11
2023-03-05T13:43:24.445Z,33.12
2023-03-05T13:45:57.545Z,33.18
2023-03-05T13:48:28.472Z,33.12
2023-03-05T13:50:59.332Z,33.11
2023-03-05T13:53:30.498Z,33.15
2023-03-05T13:56:08.208Z,33.15
2023-03-05T13:58:57.011Z,33.14
2023-03-05T14:01:46.215Z,33.14
2023-03-05T14:04:21.334Z,33.13
2023-03-05T14:07:02.090Z,33.11
2023-03-05T14:09:43.332Z,33.06
2023-03-05T14:12:27.488Z,33.30
2023-03-05T14:14:58.707Z,33.30
2023-03-05T14:17:45.229Z,33.06
2023-03-05T14:20:31.211Z,33.04
2023-03-05T14:23:02.356Z,33.02
2023-03-05T14:25:40.288Z,33.07
2023-03-05T14:28:22.796Z,33.05
2023-03-05T14:30:53.771Z,33.02
2023-03-05T14:33:29.468Z,33.04
2023-03-05T14:35:59.649Z,33.06
2023-03-05T14:38:31.495Z,33.04
2023-03-05T14:41:02.675Z,33.02
2023-03-05T14:43:32.684Z,33.00
2023-03-05T14:46:02.609Z,33.01
2023-03-05T14:48:32.509Z,33.01
2023-03-05T14:51:04.789Z,33.00
2023-03-05T14:53:37.423Z,33.01
2023-03-05T14:56:08.983Z,33.07
2023-03-05T14:58:41.201Z,32.94
2023-03-05T15:01:13.740Z,32.87
2023-03-05T15:03:44.489Z,32.85
2023-03-05T15:06:26.048Z,32.87
2023-03-05T15:08:54.626Z,32.87
2023-03-05T15:11:24.579Z,32.81
2023-03-05T15:13:54.319Z,32.81
2023-03-05T15:16:24.212Z,32.94
2023-03-05T15:18:54.562Z,32.91
2023-03-05T15:21:24.416Z,32.94
2023-03-05T15:23:54.249Z,32.98
2023-03-05T15:26:24.384Z,33.03
2023-03-05T15:28:54.245Z,33.06
2023-03-05T15:31:25.496Z,33.09
2023-03-05T15:33:55.643Z,33.12
2023-03-05T15:36:25.514Z,33.10
2023-03-05T15:38:55.410Z,33.15
2023-03-05T15:41:25.573Z,33.13
2023-03-05T15:43:55.442Z,33.13
2023-03-05T15:46:25.315Z,33.13
2023-03-05T15:48:55.319Z,33.14
2023-03-05T15:51:25.338Z,33.17
2023-03-05T15:53:55.190Z,33.17
2023-03-05T15:56:25.066Z,33.16
2023-03-05T15:58:54.969Z,33.17
2023-03-05T16:01:25.117Z,33.19
2023-03-05T16:03:55.135Z,33.17
2023-03-05T16:06:25.194Z,33.21
2023-03-05T16:08:57.513Z,33.19
2023-03-05T16:11:27.781Z,33.21
2023-03-05T16:13:57.678Z,33.22
2023-03-05T16:16:27.731Z,33.24
2023-03-05T16:18:58.327Z,33.23
2023-03-05T16:21:28.293Z,33.24
2023-03-05T16:23:58.938Z,33.24
2023-03-05T16:26:29.031Z,33.25
2023-03-05T16:28:59.073Z,33.25
2023-03-05T16:31:34.832Z,33.27
2023-03-05T16:34:04.752Z,33.23
2023-03-05T16:36:36.094Z,33.22
2023-03-05T16:39:07.348Z,33.21
2023-03-05T16:41:37.232Z,33.21
2023-03-05T16:44:09.652Z,33.26
2023-03-05T16:46:39.595Z,33.27
2023-03-05T16:49:09.555Z,33.26
2023-03-05T16:51:39.820Z,33.25
2023-03-05T16:54:10.251Z,33.30
2023-03-05T16:56:40.224Z,33.31
2023-03-05T16:59:10.150Z,33.30
2023-03-05T17:01:40.015Z,33.27
2023-03-05T17:04:10.086Z,33.30
2023-03-05T17:06:40.105Z,33.26
2023-03-05T17:09:09.984Z,33.23
2023-03-05T17:11:42.108Z,33.25
2023-03-05T17:14:12.931Z,33.28
2023-03-05T17:16:43.998Z,33.35
2023-03-05T17:19:15.003Z,33.34
2023-03-05T17:21:45.127Z,33.33
2023-03-05T17:24:16.192Z,33.38
2023-03-05T17:26:46.734Z,33.40
2023-03-05T17:29:28.746Z,33.49
2023-03-05T17:31:58.897Z,33.44
2023-03-05T17:34:35.902Z,33.46
2023-03-05T17:37:00.530Z,33.44
2023-03-05T17:39:32.063Z,33.51
2023-03-05T17:42:02.169Z,33.61
2023-03-05T17:44:32.275Z,33.65
2023-03-05T17:47:03.284Z,33.77
2023-03-05T17:49:34.127Z,33.97
2023-03-05T17:52:04.627Z,34.01
2023-03-05T17:54:36.199Z,33.97
2023-03-05T17:57:06.758Z,33.88
2023-03-05T17:59:36.667Z,33.88
2023-03-05T18:02:07.223Z,33.85
2023-03-05T18:04:37.347Z,33.97
2023-03-05T18:07:07.255Z,34.06
2023-03-05T18:09:37.152Z,34.10
2023-03-05T18:12:07.479Z,34.14
2023-03-05T18:14:38.078Z,34.12
2023-03-05T18:17:08.092Z,34.17
2023-03-05T18:19:38.033Z,34.12
2023-03-05T18:22:07.919Z,34.11
2023-03-05T18:24:38.110Z,34.12
2023-03-05T18:27:08.167Z,34.15
2023-03-05T18:29:38.134Z,34.16
2023-03-05T18:32:08.924Z,34.17
2023-03-05T18:34:39.001Z,34.23
2023-03-05T18:37:09.020Z,34.18
2023-03-05T18:39:39.207Z,34.20
2023-03-05T18:42:10.930Z,34.23
2023-03-05T18:44:41.036Z,34.19
2023-03-05T18:47:11.201Z,34.22
2023-03-05T18:49:41.182Z,34.23
2023-03-05T18:52:37.248Z,34.14
2023-03-05T18:55:08.217Z,34.20
2023-03-05T18:57:38.387Z,34.19
2023-03-05T19:00:09.144Z,34.23
2023-03-05T19:02:39.113Z,34.31
2023-03-05T19:05:09.483Z,34.15
2023-03-05T19:07:39.632Z,34.11
2023-03-05T19:10:11.352Z,34.19
2023-03-05T19:12:49.474Z,34.13
2023-03-05T19:15:22.392Z,34.08
2023-03-05T19:17:52.484Z,34.05
2023-03-05T19:20:22.531Z,34.00
2023-03-05T19:22:53.690Z,34.05
2023-03-05T19:25:23.940Z,33.94
2023-03-05T19:27:53.909Z,34.04
2023-03-05T19:30:24.026Z,33.99
2023-03-05T19:32:59.097Z,34.05
2023-03-05T19:35:29.419Z,34.07
2023-03-05T19:38:01.524Z,34.04
2023-03-05T19:40:31.463Z,34.05
2023-03-05T19:43:02.598Z,34.09
2023-03-05T19:45:37.832Z,34.15
2023-03-05T19:48:10.302Z,34.07
2023-03-05T19:50:41.040Z,34.08
2023-03-05T19:53:15.340Z,34.14
2023-03-05T19:55:44.510Z,34.09
2023-03-05T19:58:14.538Z,34.03
2023-03-05T20:00:44.437Z,34.10
2023-03-05T20:03:14.302Z,34.10
2023-03-05T20:05:44.700Z,34.18
2023-03-05T20:08:14.929Z,34.12
2023-03-05T20:10:47.335Z,34.12
2023-03-05T20:13:17.235Z,34.16
2023-03-05T20:15:47.901Z,34.17
2023-03-05T20:18:18.995Z,34.14
2023-03-05T20:20:50.392Z,34.17
2023-03-05T20:23:20.585Z,34.27
2023-03-05T20:25:58.028Z,34.19
2023-03-05T20:28:28.594Z,34.14
2023-03-05T20:30:59.022Z,34.11
2023-03-05T20:33:36.662Z,34.10
2023-03-05T20:36:08.351Z,34.12
2023-03-05T20:38:38.303Z,34.27
2023-03-05T20:41:18.260Z,34.22
2023-03-05T20:43:49.684Z,34.19
2023-03-05T20:46:26.485Z,34.12
2023-03-05T20:48:58.554Z,34.11
2023-03-05T20:51:44.010Z,34.15
2023-03-05T20:54:27.189Z,34.14
2023-03-05T20:56:57.182Z,34.14
2023-03-05T20:59:27.290Z,34.04
2023-03-05T21:02:09.577Z,34.04
2023-03-05T21:04:39.686Z,34.24
2023-03-05T21:07:10.552Z,34.21
2023-03-05T21:09:40.655Z,34.17
2023-03-05T21:12:14.210Z,34.22
2023-03-05T21:14:44.126Z,34.20
2023-03-05T21:17:14.033Z,34.18
2023-03-05T21:19:45.428Z,34.19
2023-03-05T21:22:17.258Z,34.18
2023-03-05T21:24:48.455Z,34.17
2023-03-05T21:27:18.453Z,34.25
2023-03-05T21:29:48.367Z,34.27
2023-03-05T21:32:18.348Z,34.31
2023-03-05T21:34:48.907Z,34.35
2023-03-05T21:37:19.244Z,34.25
2023-03-05T21:39:49.220Z,34.26
2023-03-05T21:42:19.682Z,34.27
2023-03-05T21:44:52.209Z,34.24
2023-03-05T21:47:23.784Z,34.33
2023-03-05T21:49:54.804Z,34.23
2023-03-05T21:52:25.157Z,34.33
2023-03-05T21:54:57.820Z,34.35
2023-03-05T21:57:28.827Z,34.30
2023-03-05T21:59:59.058Z,34.27
2023-03-05T22:02:29.115Z,34.36
2023-03-05T22:04:59.224Z,34.33
2023-03-05T22:07:29.330Z,34.28
2023-03-05T22:09:59.319Z,34.30
2023-03-05T22:12:44.957Z,34.31
2023-03-05T22:15:15.191Z,34.21
2023-03-05T22:17:45.230Z,34.37
2023-03-05T22:20:15.316Z,34.36
2023-03-05T22:22:51.899Z,34.36
2023-03-05T22:25:29.171Z,34.34
2023-03-05T22:27:59.936Z,34.26
2023-03-05T22:30:29.860Z,34.31
2023-03-05T22:33:05.748Z,34.34
2023-03-05T22:35:36.286Z,34.30
2023-03-05T22:38:07.379Z,34.27
2023-03-05T22:40:39.703Z,34.28
2023-03-05T22:43:11.960Z,34.31
2023-03-05T22:45:42.430Z,34.25
2023-03-05T22:48:13.742Z,34.22
2023-03-05T22:50:44.769Z,34.26
2023-03-05T22:53:15.455Z,34.30
2023-03-05T22:55:45.527Z,34.28
2023-03-05T22:58:15.435Z,34.31
2023-03-05T23:00:45.978Z,34.26
2023-03-05T23:03:24.053Z,34.25
2023-03-05T23:05:56.538Z,34.26
2023-03-05T23:08:29.206Z,34.29
2023-03-05T23:10:59.288Z,34.27
2023-03-05T23:13:31.602Z,34.29
2023-03-05T23:16:02.105Z,34.24
2023-03-05T23:18:32.026Z,34.30
2023-03-05T23:21:02.369Z,34.27
2023-03-05T23:23:33.289Z,34.31
2023-03-05T23:26:03.880Z,34.27
2023-03-05T23:28:35.743Z,34.24
2023-03-05T23:31:07.362Z,34.19
2023-03-05T23:33:38.121Z,34.28
2023-03-05T23:36:10.616Z,34.30
2023-03-05T23:38:43.053Z,34.29
2023-03-05T23:41:12.990Z,34.28
2023-03-05T23:43:46.934Z,34.33
2023-03-05T23:46:16.075Z,34.28
2023-03-05T23:48:46.054Z,34.31
2023-03-05T23:51:15.993Z,34.32
2023-03-05T23:53:46.449Z,34.31
2023-03-05T23:56:16.583Z,34.27
2023-03-05T23:58:46.688Z,34.33
